Time;durP1;ratioP1;P1;durP2;ratioP2;P2;SDS_P1;SDS_P2;PMS_P1;PMS_P2;Temp;Humidity;BMP_temperature;BMP_pressure;BME280_temperature;BME280_humidity;BME280_pressure;Samples;Min_cycle;Max_cycle;Signal;HPM_P1;HPM_P2
2021/03/16 00:01:21;;;;;;;;;;;4.20;92.10;;;;;;4992527;28;19952;-62
2021/03/16 00:03:46;;;;;;;;;;;4.20;92.60;;;;;;4991040;28;19956;-62
2021/03/16 00:06:14;;;;;;;;;;;4.20;92.90;;;;;;4992759;28;19960;-60
2021/03/16 00:08:40;;;;;;;;;;;4.10;92.80;;;;;;4997253;28;19952;-62
2021/03/16 00:11:05;;;;;;;;;;;4.20;93.40;;;;;;4992665;28;19949;-59
2021/03/16 00:13:31;;;;;;;;;;;4.10;93.80;;;;;;4995668;28;20000;-61
2021/03/16 00:15:56;;;;;;;;;;;4.10;94.00;;;;;;4997037;28;19941;-59
2021/03/16 00:18:22;;;;;;;;;;;4.10;93.10;;;;;;4996194;28;20061;-63
2021/03/16 00:20:48;;;;;;;;;;;4.20;93.00;;;;;;4995694;28;20352;-64
2021/03/16 00:23:13;;;;;;;;;;;4.10;93.30;;;;;;4996126;28;20421;-61
2021/03/16 00:25:39;;;;;;;;;;;4.10;93.80;;;;;;4995233;28;19910;-63
2021/03/16 00:28:05;;;;;;;;;;;4.10;93.10;;;;;;4995779;28;19909;-60
2021/03/16 00:30:31;;;;;;;;;;;4.10;92.90;;;;;;4995878;28;19945;-62
2021/03/16 00:32:56;;;;;;;;;;;4.10;93.30;;;;;;4994887;28;19905;-60
2021/03/16 00:35:22;;;;;;;;;;;4.00;93.70;;;;;;4995629;28;20353;-61
2021/03/16 00:37:47;;;;;;;;;;;4.00;93.50;;;;;;4994599;28;19918;-63
2021/03/16 00:40:13;;;;;;;;;;;4.00;94.20;;;;;;4995180;28;19940;-63
2021/03/16 00:42:39;;;;;;;;;;;4.00;94.00;;;;;;4985047;28;20009;-60
2021/03/16 00:45:05;;;;;;;;;;;4.00;94.20;;;;;;4978445;28;19933;-64
2021/03/16 00:47:31;;;;;;;;;;;3.90;94.30;;;;;;4977689;28;19995;-60
2021/03/16 00:49:56;;;;;;;;;;;3.90;94.50;;;;;;4984706;28;20000;-63
2021/03/16 00:52:22;;;;;;;;;;;3.80;94.70;;;;;;4986578;28;19917;-60
2021/03/16 00:54:48;;;;;;;;;;;3.80;93.80;;;;;;4975838;28;19937;-61
2021/03/16 00:57:13;;;;;;;;;;;3.90;94.60;;;;;;4982249;28;19949;-61
2021/03/16 00:59:39;;;;;;;;;;;4.00;91.80;;;;;;4992812;28;20371;-62
2021/03/16 01:02:04;;;;;;;;;;;4.10;90.60;;;;;;4991334;28;20270;-61
2021/03/16 01:04:30;;;;;;;;;;;4.10;90.20;;;;;;4994500;28;20785;-62
2021/03/16 01:06:55;;;;;;;;;;;4.00;90.40;;;;;;4975621;28;19914;-59
2021/03/16 01:09:21;;;;;;;;;;;4.20;88.70;;;;;;4966039;28;19941;-61
2021/03/16 01:11:46;;;;;;;;;;;4.10;87.80;;;;;;4994648;28;19960;-59
2021/03/16 01:14:12;;;;;;;;;;;4.00;88.70;;;;;;4980639;28;19917;-60
2021/03/16 01:16:38;;;;;;;;;;;4.00;87.90;;;;;;4980853;28;20359;-63
2021/03/16 01:19:03;;;;;;;;;;;4.00;87.60;;;;;;4985381;28;19925;-61
2021/03/16 01:21:29;;;;;;;;;;;4.00;87.60;;;;;;4993428;28;19909;-61
2021/03/16 01:23:54;;;;;;;;;;;4.00;88.20;;;;;;4989152;28;20367;-59
2021/03/16 01:26:20;;;;;;;;;;;4.00;87.30;;;;;;4985147;28;19913;-60
2021/03/16 01:28:45;;;;;;;;;;;4.10;86.90;;;;;;4985492;28;19910;-61
2021/03/16 01:31:11;;;;;;;;;;;4.10;87.20;;;;;;4979804;28;19909;-62
2021/03/16 01:33:36;;;;;;;;;;;4.20;86.00;;;;;;4986475;28;19910;-62
2021/03/16 01:36:02;;;;;;;;;;;4.20;86.30;;;;;;4975975;28;19914;-59
2021/03/16 01:38:27;;;;;;;;;;;4.10;87.10;;;;;;4958252;28;19984;-62
2021/03/16 01:40:53;;;;;;;;;;;4.00;87.60;;;;;;4979314;28;19918;-59
2021/03/16 01:43:24;;;;;;;;;;;4.00;88.70;;;;;;4984371;28;20382;-60
2021/03/16 01:45:50;;;;;;;;;;;4.00;89.40;;;;;;4975721;28;19961;-60
2021/03/16 01:48:24;;;;;;;;;;;3.90;90.20;;;;;;4975689;28;19953;-60
2021/03/16 01:50:50;;;;;;;;;;;4.00;90.20;;;;;;4981917;28;20363;-60
2021/03/16 01:53:16;;;;;;;;;;;3.90;90.80;;;;;;4993766;28;19992;-60
2021/03/16 01:55:42;;;;;;;;;;;4.00;90.00;;;;;;4988786;28;20005;-62
2021/03/16 01:58:08;;;;;;;;;;;4.00;90.40;;;;;;4987223;28;19918;-63
2021/03/16 02:00:40;;;;;;;;;;;4.00;90.90;;;;;;4978747;28;19924;-58
2021/03/16 02:03:09;;;;;;;;;;;4.00;90.60;;;;;;4991773;28;19914;-60
2021/03/16 02:05:35;;;;;;;;;;;4.00;90.80;;;;;;4965385;28;20275;-60
2021/03/16 02:08:00;;;;;;;;;;;4.00;91.30;;;;;;5008727;28;19931;-60
2021/03/16 02:10:41;;;;;;;;;;;4.00;91.30;;;;;;4994761;28;19906;-58
2021/03/16 02:13:10;;;;;;;;;;;4.10;91.80;;;;;;4993950;28;20330;-63
2021/03/16 02:15:37;;;;;;;;;;;4.00;91.70;;;;;;4991744;28;20379;-59
2021/03/16 02:18:07;;;;;;;;;;;4.00;91.30;;;;;;4974688;28;19922;-61
2021/03/16 02:20:35;;;;;;;;;;;4.00;91.60;;;;;;4975073;28;19989;-55
2021/03/16 02:23:05;;;;;;;;;;;4.00;91.50;;;;;;4974132;28;19910;-60
2021/03/16 02:25:31;;;;;;;;;;;4.00;91.80;;;;;;4975735;28;20279;-62
2021/03/16 02:27:56;;;;;;;;;;;3.90;92.40;;;;;;4985012;28;19909;-56
2021/03/16 02:30:22;;;;;;;;;;;3.90;92.40;;;;;;4985487;28;20004;-59
2021/03/16 02:32:48;;;;;;;;;;;4.00;92.10;;;;;;4976352;28;20311;-62
2021/03/16 02:35:16;;;;;;;;;;;3.90;92.30;;;;;;4985105;28;19913;-60
2021/03/16 02:37:42;;;;;;;;;;;3.90;92.30;;;;;;4977168;28;20346;-63
2021/03/16 02:40:08;;;;;;;;;;;3.90;92.40;;;;;;4982596;28;20004;-63
2021/03/16 02:42:34;;;;;;;;;;;3.90;92.60;;;;;;4987558;28;19917;-61
2021/03/16 02:45:00;;;;;;;;;;;3.80;93.00;;;;;;4975042;28;20480;-61
2021/03/16 02:47:26;;;;;;;;;;;3.80;92.70;;;;;;4980397;28;19925;-61
2021/03/16 02:49:52;;;;;;;;;;;3.80;93.10;;;;;;4977718;28;19910;-58
2021/03/16 02:52:18;;;;;;;;;;;3.80;92.90;;;;;;4974086;28;19932;-60
2021/03/16 02:54:46;;;;;;;;;;;3.90;92.50;;;;;;4973973;28;19921;-61
2021/03/16 02:57:12;;;;;;;;;;;3.90;92.60;;;;;;4975983;28;19988;-60
2021/03/16 02:59:40;;;;;;;;;;;3.90;92.90;;;;;;4979043;28;19910;-61
2021/03/16 03:02:08;;;;;;;;;;;3.90;93.30;;;;;;4974253;28;19979;-62
2021/03/16 03:04:34;;;;;;;;;;;3.90;94.50;;;;;;4974760;28;20352;-61
2021/03/16 03:07:00;;;;;;;;;;;3.80;96.00;;;;;;4984668;28;19921;-62
2021/03/16 03:09:26;;;;;;;;;;;3.80;97.50;;;;;;4982294;28;19933;-60
2021/03/16 03:11:52;;;;;;;;;;;3.60;98.20;;;;;;4992282;28;19960;-61
2021/03/16 03:14:17;;;;;;;;;;;3.60;97.70;;;;;;4984333;28;19913;-62
2021/03/16 03:16:42;;;;;;;;;;;3.50;98.30;;;;;;4974553;28;20048;-63
2021/03/16 03:19:08;;;;;;;;;;;3.50;98.70;;;;;;4981296;28;20071;-61
2021/03/16 03:21:54;;;;;;;;;;;3.50;98.80;;;;;;4978080;28;20382;-61
2021/03/16 03:24:22;;;;;;;;;;;3.50;97.60;;;;;;4964780;28;19905;-62
2021/03/16 03:26:56;;;;;;;;;;;3.50;97.20;;;;;;4976393;28;20001;-62
2021/03/16 03:29:24;;;;;;;;;;;3.50;97.60;;;;;;4976813;28;19905;-59
2021/03/16 03:31:49;;;;;;;;;;;3.40;97.90;;;;;;4960848;28;20352;-58
2021/03/16 03:34:17;;;;;;;;;;;3.50;97.00;;;;;;4975250;28;19965;-60
2021/03/16 03:36:43;;;;;;;;;;;3.50;96.90;;;;;;4974339;28;20370;-64
2021/03/16 03:39:09;;;;;;;;;;;3.50;96.00;;;;;;4981231;28;20019;-60
2021/03/16 03:41:36;;;;;;;;;;;3.50;97.10;;;;;;5004351;28;20367;-59
2021/03/16 03:44:03;;;;;;;;;;;3.50;97.30;;;;;;4971846;28;19914;-60
2021/03/16 03:46:30;;;;;;;;;;;3.50;97.50;;;;;;4976181;28;19953;-61
2021/03/16 03:48:56;;;;;;;;;;;3.50;98.20;;;;;;4972326;28;19952;-61
2021/03/16 03:51:22;;;;;;;;;;;3.40;98.80;;;;;;4973135;28;20280;-63
2021/03/16 03:53:49;;;;;;;;;;;3.30;98.40;;;;;;4972205;28;19937;-59
2021/03/16 03:56:15;;;;;;;;;;;3.30;99.00;;;;;;4973415;28;19910;-60
2021/03/16 03:58:41;;;;;;;;;;;3.30;97.50;;;;;;4973423;28;20410;-63
2021/03/16 04:01:07;;;;;;;;;;;3.30;97.10;;;;;;4972693;28;19960;-60
2021/03/16 04:03:33;;;;;;;;;;;3.30;96.40;;;;;;4973458;28;20363;-61
2021/03/16 04:05:59;;;;;;;;;;;3.30;97.10;;;;;;4972761;28;20013;-62
2021/03/16 04:08:24;;;;;;;;;;;3.30;96.20;;;;;;4979942;28;19918;-63
2021/03/16 04:10:51;;;;;;;;;;;3.40;95.70;;;;;;4971881;28;19914;-62
2021/03/16 04:13:17;;;;;;;;;;;3.40;95.60;;;;;;4973759;28;19956;-59
2021/03/16 04:15:42;;;;;;;;;;;3.40;95.50;;;;;;4981334;28;19910;-63
2021/03/16 04:18:08;;;;;;;;;;;3.50;93.90;;;;;;4972222;28;19918;-62
2021/03/16 04:20:34;;;;;;;;;;;3.50;95.00;;;;;;4972975;28;19906;-60
2021/03/16 04:23:00;;;;;;;;;;;3.40;94.10;;;;;;4970447;28;19920;-61
2021/03/16 04:25:26;;;;;;;;;;;3.50;94.70;;;;;;4972867;28;19910;-62
2021/03/16 04:27:51;;;;;;;;;;;3.40;96.60;;;;;;4971835;28;19950;-61
2021/03/16 04:30:17;;;;;;;;;;;3.30;98.60;;;;;;4972626;28;19910;-61
2021/03/16 04:32:43;;;;;;;;;;;3.20;99.30;;;;;;4973167;28;19921;-62
2021/03/16 04:35:09;;;;;;;;;;;3.10;99.90;;;;;;4972203;28;19918;-60
2021/03/16 04:37:34;;;;;;;;;;;3.00;99.90;;;;;;4972195;28;19918;-62
2021/03/16 04:40:00;;;;;;;;;;;3.00;99.90;;;;;;4977437;28;19914;-61
2021/03/16 04:42:25;;;;;;;;;;;3.00;99.90;;;;;;4977517;28;19918;-61
2021/03/16 04:44:51;;;;;;;;;;;2.90;99.90;;;;;;4982016;28;19909;-62
2021/03/16 04:47:16;;;;;;;;;;;2.90;99.90;;;;;;4989013;28;19910;-60
2021/03/16 04:49:42;;;;;;;;;;;2.90;99.90;;;;;;4984614;28;19921;-61
2021/03/16 04:52:07;;;;;;;;;;;2.90;99.90;;;;;;4976798;28;19913;-61
2021/03/16 04:54:33;;;;;;;;;;;3.00;99.90;;;;;;4974341;28;20347;-61
2021/03/16 04:56:59;;;;;;;;;;;3.10;99.90;;;;;;4982287;28;20435;-61
2021/03/16 04:59:24;;;;;;;;;;;3.10;97.60;;;;;;4992010;28;20268;-60
2021/03/16 05:01:50;;;;;;;;;;;3.20;96.60;;;;;;4978345;28;20024;-61
2021/03/16 05:04:15;;;;;;;;;;;3.10;98.60;;;;;;4995498;28;20004;-58
2021/03/16 05:06:41;;;;;;;;;;;3.00;98.40;;;;;;4990511;28;20126;-59
2021/03/16 05:09:06;;;;;;;;;;;3.10;98.20;;;;;;4990092;28;19912;-61
2021/03/16 05:11:33;;;;;;;;;;;3.10;97.90;;;;;;4995468;28;19929;-63
2021/03/16 05:13:58;;;;;;;;;;;3.10;97.50;;;;;;4981741;28;19905;-61
2021/03/16 05:16:24;;;;;;;;;;;3.10;96.90;;;;;;4985734;28;19909;-59
2021/03/16 05:18:49;;;;;;;;;;;3.10;97.30;;;;;;4993825;28;19913;-61
2021/03/16 05:21:15;;;;;;;;;;;3.20;96.40;;;;;;4994879;28;19917;-61
2021/03/16 05:23:40;;;;;;;;;;;3.20;96.50;;;;;;4979567;28;19910;-61
2021/03/16 05:26:06;;;;;;;;;;;3.20;97.00;;;;;;4974807;28;19906;-59
2021/03/16 05:28:31;;;;;;;;;;;3.10;97.00;;;;;;4975942;28;20287;-58
2021/03/16 05:30:57;;;;;;;;;;;3.20;96.20;;;;;;4965949;28;20385;-60
2021/03/16 05:33:22;;;;;;;;;;;3.30;95.00;;;;;;4987064;28;19964;-58
2021/03/16 05:35:48;;;;;;;;;;;3.30;94.80;;;;;;4985379;28;19941;-63
2021/03/16 05:38:14;;;;;;;;;;;3.30;94.90;;;;;;4978234;28;19918;-61
2021/03/16 05:40:40;;;;;;;;;;;3.30;95.60;;;;;;4980791;28;20271;-61
2021/03/16 05:43:06;;;;;;;;;;;3.30;95.70;;;;;;4984607;28;20094;-60
2021/03/16 05:45:32;;;;;;;;;;;3.30;95.40;;;;;;4976178;28;20359;-59
2021/03/16 05:47:57;;;;;;;;;;;3.30;95.40;;;;;;4974956;28;19910;-62
2021/03/16 05:50:23;;;;;;;;;;;3.40;93.90;;;;;;4986308;28;19910;-59
2021/03/16 05:52:52;;;;;;;;;;;3.50;94.00;;;;;;4986498;28;19910;-62
2021/03/16 05:55:17;;;;;;;;;;;3.50;94.20;;;;;;4983111;28;19910;-60
2021/03/16 05:57:43;;;;;;;;;;;3.40;94.50;;;;;;4974489;28;20433;-61
2021/03/16 06:00:09;;;;;;;;;;;3.40;94.30;;;;;;4974585;28;19929;-61
2021/03/16 06:02:38;;;;;;;;;;;3.40;95.20;;;;;;4988309;28;19916;-60
2021/03/16 06:05:04;;;;;;;;;;;3.40;94.10;;;;;;4992876;28;19913;-62
2021/03/16 06:07:30;;;;;;;;;;;3.40;94.40;;;;;;4992956;28;20310;-58
2021/03/16 06:09:56;;;;;;;;;;;3.50;93.80;;;;;;4977515;28;19926;-60
2021/03/16 06:12:28;;;;;;;;;;;3.60;93.30;;;;;;4983158;28;19957;-58
2021/03/16 06:14:53;;;;;;;;;;;3.50;93.60;;;;;;4974485;28;19914;-62
2021/03/16 06:17:19;;;;;;;;;;;3.60;93.60;;;;;;4968755;28;19910;-60
2021/03/16 06:19:44;;;;;;;;;;;3.60;93.20;;;;;;4985050;28;19910;-60
2021/03/16 06:22:15;;;;;;;;;;;3.70;92.90;;;;;;4978799;28;19921;-59
2021/03/16 06:24:48;;;;;;;;;;;3.70;92.70;;;;;;4981465;28;19928;-63
2021/03/16 06:27:24;;;;;;;;;;;3.60;93.70;;;;;;4983457;28;19910;-60
2021/03/16 06:29:50;;;;;;;;;;;3.70;93.10;;;;;;4974189;28;19910;-64
2021/03/16 06:32:16;;;;;;;;;;;3.70;93.60;;;;;;4973771;28;19932;-60
2021/03/16 06:34:42;;;;;;;;;;;3.80;93.20;;;;;;4993744;28;19920;-62
2021/03/16 06:37:07;;;;;;;;;;;3.80;92.90;;;;;;4978817;28;19902;-61
2021/03/16 06:39:32;;;;;;;;;;;3.80;92.30;;;;;;4963074;28;20038;-61
2021/03/16 06:41:58;;;;;;;;;;;3.80;93.70;;;;;;4983869;28;19917;-60
2021/03/16 06:44:24;;;;;;;;;;;3.90;92.80;;;;;;4989972;28;19909;-63
2021/03/16 06:46:54;;;;;;;;;;;3.80;93.50;;;;;;4983045;28;19917;-64
2021/03/16 06:49:20;;;;;;;;;;;3.80;93.00;;;;;;4993050;28;19910;-60
2021/03/16 06:51:46;;;;;;;;;;;3.90;92.40;;;;;;4981170;28;20280;-63
2021/03/16 06:54:12;;;;;;;;;;;4.00;91.90;;;;;;4975430;28;19910;-63
2021/03/16 06:56:38;;;;;;;;;;;4.00;92.40;;;;;;4980391;28;19910;-64
2021/03/16 06:59:07;;;;;;;;;;;4.00;92.70;;;;;;4980858;28;19972;-60
2021/03/16 07:01:34;;;;;;;;;;;4.10;92.00;;;;;;4988575;28;19924;-63
2021/03/16 07:04:00;;;;;;;;;;;4.00;92.60;;;;;;4973286;28;20012;-63
2021/03/16 07:06:26;;;;;;;;;;;4.00;93.40;;;;;;4976696;28;20339;-63
2021/03/16 07:08:52;;;;;;;;;;;4.00;93.50;;;;;;4990649;28;20442;-61
2021/03/16 07:11:19;;;;;;;;;;;4.00;95.00;;;;;;4987610;28;19984;-62
2021/03/16 07:13:45;;;;;;;;;;;4.00;95.80;;;;;;4976716;28;19909;-64
2021/03/16 07:16:11;;;;;;;;;;;3.90;96.10;;;;;;4982189;28;19972;-61
2021/03/16 07:18:38;;;;;;;;;;;3.80;97.10;;;;;;4973983;28;19945;-61
2021/03/16 07:21:05;;;;;;;;;;;3.70;98.10;;;;;;4976530;28;19914;-64
2021/03/16 07:23:32;;;;;;;;;;;3.60;99.90;;;;;;4986451;28;19914;-63
2021/03/16 07:25:57;;;;;;;;;;;3.60;98.50;;;;;;4972924;28;19953;-60
2021/03/16 07:28:24;;;;;;;;;;;3.60;98.60;;;;;;4973612;28;19942;-63
2021/03/16 07:30:50;;;;;;;;;;;3.60;99.40;;;;;;4973266;28;20271;-64
2021/03/16 07:33:16;;;;;;;;;;;3.50;99.90;;;;;;4976490;28;19925;-61
2021/03/16 07:35:41;;;;;;;;;;;3.30;99.90;;;;;;4992415;28;19913;-59
2021/03/16 07:38:08;;;;;;;;;;;3.20;99.90;;;;;;4975561;28;19914;-63
2021/03/16 07:40:34;;;;;;;;;;;3.10;99.90;;;;;;4991331;28;20005;-63
2021/03/16 07:42:59;;;;;;;;;;;3.00;99.90;;;;;;4985344;28;20012;-63
2021/03/16 07:45:26;;;;;;;;;;;3.00;99.90;;;;;;4978056;28;19916;-62
2021/03/16 07:47:53;;;;;;;;;;;2.90;99.90;;;;;;4955422;28;19945;-64
2021/03/16 07:50:25;;;;;;;;;;;2.90;99.90;;;;;;4973228;28;19910;-60
2021/03/16 07:52:51;;;;;;;;;;;3.10;99.90;;;;;;4981262;28;20041;-64
2021/03/16 07:55:26;;;;;;;;;;;3.20;99.90;;;;;;4973665;28;19935;-61
2021/03/16 07:57:52;;;;;;;;;;;3.30;99.90;;;;;;4974136;28;19914;-65
2021/03/16 08:00:27;;;;;;;;;;;3.50;99.90;;;;;;4979834;28;19914;-62
2021/03/16 08:02:56;;;;;;;;;;;3.70;99.90;;;;;;4976398;28;20255;-64
2021/03/16 08:05:22;;;;;;;;;;;3.70;99.90;;;;;;4973341;28;20390;-61
2021/03/16 08:07:48;;;;;;;;;;;3.80;99.90;;;;;;4958461;28;19949;-63
2021/03/16 08:10:24;;;;;;;;;;;3.90;99.90;;;;;;4972499;28;19910;-64
2021/03/16 08:12:57;;;;;;;;;;;4.00;99.90;;;;;;4973230;28;19910;-57
2021/03/16 08:15:23;;;;;;;;;;;4.10;99.80;;;;;;4981071;28;19910;-62
2021/03/16 08:17:56;;;;;;;;;;;4.20;96.70;;;;;;4972981;28;20272;-63
2021/03/16 08:20:24;;;;;;;;;;;4.20;97.00;;;;;;4991468;28;19921;-64
2021/03/16 08:22:49;;;;;;;;;;;4.30;96.90;;;;;;4968146;28;19909;-60
2021/03/16 08:25:15;;;;;;;;;;;4.40;94.10;;;;;;4990329;28;19964;-63
2021/03/16 08:27:41;;;;;;;;;;;4.50;92.50;;;;;;4980686;28;20364;-58
2021/03/16 08:30:08;;;;;;;;;;;4.40;93.80;;;;;;4960773;28;19992;-64
2021/03/16 08:32:34;;;;;;;;;;;4.50;92.20;;;;;;4990311;28;19936;-64
2021/03/16 08:35:00;;;;;;;;;;;4.50;93.50;;;;;;4991335;28;20319;-60
2021/03/16 08:37:33;;;;;;;;;;;4.50;92.80;;;;;;4972531;28;19910;-62
2021/03/16 08:39:58;;;;;;;;;;;4.50;91.30;;;;;;4976439;28;19921;-63
2021/03/16 08:42:25;;;;;;;;;;;4.60;91.90;;;;;;4984532;28;20374;-62
2021/03/16 08:44:51;;;;;;;;;;;4.60;92.60;;;;;;4959299;28;20000;-62
2021/03/16 08:47:18;;;;;;;;;;;4.70;91.80;;;;;;4979450;28;20360;-60
2021/03/16 08:49:45;;;;;;;;;;;4.80;91.70;;;;;;4986320;28;19968;-61
2021/03/16 08:52:20;;;;;;;;;;;5.10;88.40;;;;;;4985038;28;19920;-61
2021/03/16 08:54:48;;;;;;;;;;;5.20;88.80;;;;;;4976382;28;20352;-63
2021/03/16 08:57:18;;;;;;;;;;;5.30;87.40;;;;;;4977629;28;19990;-61
2021/03/16 08:59:50;;;;;;;;;;;5.30;87.10;;;;;;4986122;28;19965;-62
2021/03/16 09:02:23;;;;;;;;;;;5.40;87.30;;;;;;4979467;28;19961;-61
2021/03/16 09:04:49;;;;;;;;;;;5.50;85.80;;;;;;4991563;28;19914;-61
2021/03/16 09:07:36;;;;;;;;;;;5.60;86.10;;;;;;4975303;28;20096;-63
2021/03/16 09:10:20;;;;;;;;;;;5.70;84.00;;;;;;4992795;28;19917;-63
2021/03/16 09:12:47;;;;;;;;;;;5.70;84.20;;;;;;4980950;28;20386;-61
2021/03/16 09:15:19;;;;;;;;;;;5.60;84.30;;;;;;4975032;28;19910;-61
2021/03/16 09:17:46;;;;;;;;;;;5.60;85.40;;;;;;4975536;28;19960;-62
2021/03/16 09:20:17;;;;;;;;;;;5.50;85.90;;;;;;4992800;28;19948;-61
2021/03/16 09:22:45;;;;;;;;;;;5.40;87.20;;;;;;4983607;28;19973;-62
2021/03/16 09:25:12;;;;;;;;;;;5.50;85.80;;;;;;4984290;28;19945;-64
2021/03/16 09:27:39;;;;;;;;;;;5.40;86.20;;;;;;4987146;28;19909;-63
2021/03/16 09:30:08;;;;;;;;;;;5.30;88.40;;;;;;4981097;28;19912;-62
2021/03/16 09:32:34;;;;;;;;;;;5.20;90.40;;;;;;4986693;28;19952;-63
2021/03/16 09:35:00;;;;;;;;;;;5.10;91.30;;;;;;4979271;28;20005;-60
2021/03/16 09:37:25;;;;;;;;;;;5.00;94.30;;;;;;4973479;28;19993;-64
2021/03/16 09:39:52;;;;;;;;;;;5.00;92.90;;;;;;4966263;28;19922;-61
2021/03/16 09:42:18;;;;;;;;;;;5.00;94.10;;;;;;4993023;28;19925;-63
2021/03/16 09:44:45;;;;;;;;;;;5.10;92.70;;;;;;4983254;28;19910;-62
2021/03/16 09:47:11;;;;;;;;;;;5.10;93.50;;;;;;4960616;28;19999;-63
2021/03/16 09:49:40;;;;;;;;;;;5.30;92.90;;;;;;4973815;28;20251;-61
2021/03/16 09:52:10;;;;;;;;;;;5.40;92.50;;;;;;4981411;28;19969;-63
2021/03/16 09:54:39;;;;;;;;;;;5.40;90.60;;;;;;4983648;28;19910;-61
2021/03/16 09:57:06;;;;;;;;;;;5.30;91.10;;;;;;4974470;28;19910;-64
2021/03/16 09:59:35;;;;;;;;;;;5.20;92.40;;;;;;4986056;28;20045;-60
2021/03/16 10:02:01;;;;;;;;;;;5.10;93.90;;;;;;4982016;28;20366;-64
2021/03/16 10:04:27;;;;;;;;;;;5.20;95.30;;;;;;4987985;28;19914;-62
2021/03/16 10:06:55;;;;;;;;;;;5.10;94.70;;;;;;4991604;28;19925;-63
2021/03/16 10:09:22;;;;;;;;;;;5.10;93.40;;;;;;4982356;28;19914;-62
2021/03/16 10:11:48;;;;;;;;;;;5.10;94.50;;;;;;4993871;28;19989;-60
2021/03/16 10:14:34;;;;;;;;;;;5.10;94.00;;;;;;4987889;28;19910;-62
2021/03/16 10:16:59;;;;;;;;;;;5.10;94.10;;;;;;4975339;28;19963;-63
2021/03/16 10:19:25;;;;;;;;;;;5.10;95.50;;;;;;4985878;28;19917;-63
2021/03/16 10:21:51;;;;;;;;;;;5.30;94.70;;;;;;4989468;28;19925;-63
2021/03/16 10:24:24;;;;;;;;;;;5.50;93.40;;;;;;4985230;28;19913;-63
2021/03/16 10:27:00;;;;;;;;;;;5.60;91.00;;;;;;4979272;28;20287;-63
2021/03/16 10:29:25;;;;;;;;;;;5.80;90.40;;;;;;4974190;28;19964;-63
2021/03/16 10:31:51;;;;;;;;;;;5.90;90.00;;;;;;4986665;28;19992;-60
2021/03/16 10:34:16;;;;;;;;;;;6.20;87.00;;;;;;4992811;28;19909;-62
2021/03/16 10:36:42;;;;;;;;;;;6.40;86.30;;;;;;4991481;28;19991;-64
2021/03/16 10:39:08;;;;;;;;;;;6.50;87.10;;;;;;4977565;28;20338;-63
2021/03/16 10:41:33;;;;;;;;;;;6.70;84.00;;;;;;4977820;28;19918;-62
2021/03/16 10:43:59;;;;;;;;;;;6.80;83.20;;;;;;4986991;28;20311;-65
2021/03/16 10:46:25;;;;;;;;;;;7.00;80.60;;;;;;4983337;28;19910;-62
2021/03/16 10:48:51;;;;;;;;;;;7.00;80.20;;;;;;4975114;28;19920;-61
2021/03/16 10:51:16;;;;;;;;;;;7.00;79.60;;;;;;4987162;28;19917;-63
2021/03/16 10:56:37;;;;;;;12.30;3.67;;;7.00;78.10;;;;;;5080647;27;1476958;-62
2021/03/16 10:59:03;;;;;;;11.90;3.45;;;7.00;78.00;;;;;;5127246;28;20439;-62
2021/03/16 11:01:29;;;;;;;12.13;3.47;;;7.00;77.80;;;;;;5112479;28;20410;-62
2021/03/16 11:03:54;;;;;;;22.25;4.38;;;7.00;76.40;;;;;;5110863;28;20024;-61
2021/03/16 11:06:20;;;;;;;12.70;3.45;;;6.90;76.20;;;;;;5113922;28;20042;-62
2021/03/16 11:08:45;;;;;;;11.52;3.35;;;6.90;76.80;;;;;;5122777;28;20062;-62
2021/03/16 11:11:11;;;;;;;13.73;3.42;;;7.00;74.20;;;;;;5124878;28;20031;-63
2021/03/16 11:13:37;;;;;;;9.90;3.55;;;7.00;75.30;;;;;;5111968;28;20024;-61
2021/03/16 11:16:03;;;;;;;8.25;2.97;;;7.00;74.90;;;;;;5119297;28;20027;-60
2021/03/16 11:18:28;;;;;;;12.77;3.80;;;7.00;75.20;;;;;;5128255;28;20426;-62
2021/03/16 11:20:54;;;;;;;16.38;4.10;;;7.00;74.30;;;;;;5123224;28;20039;-63
2021/03/16 11:23:19;;;;;;;9.98;3.08;;;7.00;74.00;;;;;;5117877;28;20605;-63
2021/03/16 11:25:45;;;;;;;15.50;3.35;;;7.00;74.10;;;;;;5125849;28;20452;-61
2021/03/16 11:28:11;;;;;;;11.20;3.67;;;6.80;74.10;;;;;;5127427;28;20456;-63
2021/03/16 11:30:37;;;;;;;20.52;3.60;;;6.80;74.00;;;;;;5119593;28;20100;-62
2021/03/16 11:33:03;;;;;;;10.35;3.08;;;6.60;75.70;;;;;;5127771;28;20028;-63
2021/03/16 11:35:29;;;;;;;11.18;3.15;;;6.70;75.60;;;;;;5113031;28;20465;-60
2021/03/16 11:37:55;;;;;;;6.68;3.03;;;6.70;75.20;;;;;;5104255;28;20042;-63
2021/03/16 11:40:20;;;;;;;19.02;4.22;;;6.70;74.80;;;;;;5123951;28;20459;-63
2021/03/16 11:42:46;;;;;;;9.50;2.78;;;6.70;75.60;;;;;;5120064;28;20080;-63
2021/03/16 11:45:12;;;;;;;11.77;2.70;;;6.60;74.70;;;;;;5113880;28;20115;-63
2021/03/16 11:47:38;;;;;;;8.80;2.55;;;6.50;73.60;;;;;;5108349;28;20107;-61
2021/03/16 11:50:05;;;;;;;11.88;2.58;;;6.30;73.90;;;;;;5098731;28;20081;-61
2021/03/16 11:52:31;;;;;;;9.98;2.78;;;6.10;76.20;;;;;;5092046;28;20036;-62
2021/03/16 11:54:57;;;;;;;11.32;3.53;;;5.80;77.70;;;;;;5108202;28;20059;-62
2021/03/16 11:57:22;;;;;;;15.55;2.83;;;5.60;79.90;;;;;;5124137;28;20451;-61
2021/03/16 11:59:48;;;;;;;8.02;2.42;;;5.40;81.90;;;;;;5117411;28;20028;-61
2021/03/16 12:02:14;;;;;;;10.80;2.50;;;5.30;82.80;;;;;;5108139;28;20051;-63
2021/03/16 12:04:39;;;;;;;16.92;3.00;;;5.40;82.20;;;;;;5115500;28;20067;-63
2021/03/16 12:07:05;;;;;;;5.80;2.70;;;5.40;84.20;;;;;;5102162;28;20381;-63
2021/03/16 12:09:31;;;;;;;13.68;2.75;;;5.60;82.10;;;;;;5093400;28;20833;-62
2021/03/16 12:11:56;;;;;;;10.25;2.70;;;5.70;81.70;;;;;;5096862;28;20021;-62
2021/03/16 12:14:22;;;;;;;23.73;4.00;;;5.80;80.10;;;;;;5101096;28;20036;-63
2021/03/16 12:16:47;;;;;;;16.02;3.20;;;6.10;78.00;;;;;;5096818;28;20051;-63
2021/03/16 12:19:13;;;;;;;15.52;3.55;;;6.20;76.80;;;;;;5113156;28;20099;-61
2021/03/16 12:21:39;;;;;;;10.38;2.50;;;6.40;78.50;;;;;;5102603;28;20027;-63
2021/03/16 12:24:05;;;;;;;9.23;2.53;;;6.70;76.10;;;;;;5093481;28;20039;-63
2021/03/16 12:26:30;;;;;;;16.52;2.90;;;7.00;72.40;;;;;;5108969;28;20043;-63
2021/03/16 12:28:56;;;;;;;6.13;2.45;;;7.20;69.30;;;;;;5094353;28;20389;-63
2021/03/16 12:31:22;;;;;;;8.88;2.35;;;7.30;70.60;;;;;;5092695;28;20149;-63
2021/03/16 12:33:47;;;;;;;11.38;2.90;;;7.50;71.90;;;;;;5093526;28;20078;-62
2021/03/16 12:36:13;;;;;;;14.15;2.70;;;7.80;68.80;;;;;;5107848;28;20032;-62
2021/03/16 12:38:39;;;;;;;15.20;2.42;;;8.00;66.60;;;;;;5099319;28;20040;-61
2021/03/16 12:41:05;;;;;;;9.52;2.83;;;8.10;66.70;;;;;;5092867;28;20032;-62
2021/03/16 12:43:31;;;;;;;5.45;2.33;;;8.20;63.40;;;;;;5094574;28;20089;-61
2021/03/16 12:45:56;;;;;;;8.57;2.10;;;8.20;62.70;;;;;;5096762;28;20460;-62
2021/03/16 12:48:22;;;;;;;12.80;2.78;;;8.00;63.20;;;;;;5104638;28;20020;-61
2021/03/16 12:50:47;;;;;;;8.45;3.00;;;7.70;62.20;;;;;;5106926;28;20431;-62
2021/03/16 12:53:13;;;;;;;10.38;3.00;;;7.50;64.00;;;;;;5092509;28;20095;-62
2021/03/16 12:55:40;;;;;;;6.80;2.80;;;7.30;63.20;;;;;;5074952;28;20083;-62
2021/03/16 12:58:05;;;;;;;8.07;2.38;;;7.20;64.60;;;;;;5095056;28;20024;-62
2021/03/16 13:00:31;;;;;;;11.10;2.58;;;7.10;64.80;;;;;;5097095;28;20096;-61
2021/03/16 13:02:57;;;;;;;14.68;3.22;;;7.00;64.80;;;;;;5112799;28;20027;-62
2021/03/16 13:05:23;;;;;;;15.05;3.40;;;7.00;63.50;;;;;;5112031;28;20032;-63
2021/03/16 13:07:48;;;;;;;7.75;2.30;;;7.00;62.40;;;;;;5109729;28;20477;-62
2021/03/16 13:10:14;;;;;;;9.70;2.40;;;7.00;62.50;;;;;;5095885;28;20020;-62
2021/03/16 13:12:40;;;;;;;7.40;2.50;;;7.10;60.80;;;;;;5098124;28;20027;-61
2021/03/16 13:15:06;;;;;;;6.50;2.30;;;7.10;61.80;;;;;;5092399;28;20118;-62
2021/03/16 13:17:33;;;;;;;9.85;2.90;;;7.10;62.30;;;;;;5074708;28;20563;-60
2021/03/16 13:19:59;;;;;;;12.85;2.80;;;7.10;63.20;;;;;;5095438;28;20105;-62
2021/03/16 13:22:24;;;;;;;6.15;2.45;;;7.20;62.90;;;;;;5092284;28;20052;-61
2021/03/16 13:24:50;;;;;;;5.30;2.40;;;7.30;62.10;;;;;;5096604;28;20036;-62
2021/03/16 13:27:16;;;;;;;10.65;1.90;;;7.30;62.30;;;;;;5092343;28;20020;-62
2021/03/16 13:29:41;;;;;;;5.47;1.77;;;7.30;61.80;;;;;;5095950;28;20027;-62
2021/03/16 13:32:08;;;;;;;5.25;2.03;;;7.40;61.50;;;;;;5098001;28;20070;-63
2021/03/16 13:34:35;;;;;;;11.13;2.20;;;7.50;61.30;;;;;;5091762;28;20040;-63
2021/03/16 13:37:01;;;;;;;6.72;2.50;;;7.60;60.20;;;;;;5112576;28;20151;-61
2021/03/16 13:39:27;;;;;;;6.78;1.95;;;7.70;60.30;;;;;;5111732;28;20369;-64
2021/03/16 13:41:52;;;;;;;7.78;1.77;;;7.90;60.00;;;;;;5067433;28;20041;-67
2021/03/16 13:44:18;;;;;;;6.13;2.00;;;8.10;60.30;;;;;;5088945;28;20473;-66
2021/03/16 13:46:43;;;;;;;6.60;1.88;;;8.40;59.00;;;;;;5108332;28;20388;-61
2021/03/16 13:49:09;;;;;;;8.18;1.80;;;8.40;58.10;;;;;;5091876;28;20026;-63
2021/03/16 13:51:35;;;;;;;11.75;1.92;;;8.50;58.60;;;;;;5092984;28;20032;-66
2021/03/16 13:54:01;;;;;;;7.20;1.50;;;8.50;56.40;;;;;;5086736;28;20058;-62
2021/03/16 13:56:26;;;;;;;3.83;1.27;;;8.30;57.20;;;;;;5110454;28;20062;-62
2021/03/16 13:58:52;;;;;;;7.72;2.45;;;8.20;58.30;;;;;;5111857;28;20365;-62
2021/03/16 14:01:17;;;;;;;9.73;1.67;;;8.20;57.70;;;;;;5111164;28;20023;-61
2021/03/16 14:03:43;;;;;;;8.25;1.77;;;8.10;57.90;;;;;;5099656;28;20375;-62
2021/03/16 14:06:09;;;;;;;5.45;1.40;;;8.00;57.90;;;;;;5091567;28;20036;-62